Tiempo atmosférico en la estación meteorológica de Salamanca Aeropuerto, Salamanca (790 m.)



Fecha
DESCASC
Temp. máxima en grados centígrados (hora)
DESCASC
Temp. mínima en grados centígrados (hora)
DESCASC
Temp. media en grados centígrados
DESCASC
Racha de viento máxima en m/sg (hora)
DESCASC
Velocidad máxima media en intervalos de 10 minutos(hora)
DESCASC
Precipitaciones diarias en mm
DESCASC
Precipitaciones de 00:00 a 06:00 en mm
DESCASC
Precipitaciones de 06:00 a 12:00 en mm
DESCASC
Precipitaciones de 12:00 a 18:00 en mm
DESCASC
Precipitaciones de 18:00 a 24:00 en mm
DESCASC
18-08-2019 29.5 (17:30) 11.7 (07:30) 20.6 10.83 (17:20) 7.22 (17:20) 0 0 0 0 0
17-08-2019 34.4 (17:30) 11.5 (08:10) 23 9.17 (17:10) 6.11 (17:10) 0 0 0 0 0
16-08-2019 33.4 (17:30) 13 (07:40) 23.2 8.33 (17:00) 5 (17:00) 0 0 0 0 0
15-08-2019 32.4 (18:40) 13.1 (00:00) 22.8 6.67 (13:40) 3.89 (12:40) 0 0 0 0 0
14-08-2019 31.8 (18:10) 8.1 (00:00) 19.9 6.11 (17:00) 3.61 (17:00) 0 0 0 0 0
13-08-2019 27.4 (17:50) 8.3 (00:00) 17.8 7.22 (04:10) 4.72 (04:20) 0 0 0 0 0
12-08-2019 -- (--) -- (--) -- -- (--) -- (--) -- 0 0 -- 0
11-08-2019 23.5 (17:50) 11 (00:00) 17.3 9.17 (15:40) 6.11 (18:50) 0.4 0.4 0 0 0
10-08-2019 27.6 (19:00) 9.9 (00:00) 18.8 7.78 (19:20) 4.44 (20:00) 0 0 0 0 0
09-08-2019 23.2 (09:30) 14.3 (00:00) 18.8 14.44 (16:40) 8.89 (09:20) 2.5 0 0 1.5 1
08-08-2019 31.6 (16:10) 18.5 (00:00) 25.1 16.11 (15:30) 10.56 (18:20) 0 0 0 0 0
07-08-2019 26.9 (14:10) 16.2 (00:00) 21.6 9.17 (15:20) 7.22 (15:20) 0 0 0 0 0
06-08-2019 33.1 (16:20) 13.4 (00:00) 23.2 7.22 (16:20) 4.72 (18:10) 0 0 0 0 0
05-08-2019 33 (17:00) 12.5 (00:00) 22.8 8.89 (15:20) 5.83 (15:50) 0 0 0 0 0
04-08-2019 33.5 (17:30) 12.9 (00:00) 23.2 -- (--) -- (--) 0 0 0 0 0
03-08-2019 33.6 (16:20) 11.6 (00:00) 22.6 8.89 (15:30) 5.28 (15:50) 0 0 0 0 0
02-08-2019 32.7 (19:40) 10.3 (00:00) 21.5 5.83 (18:50) 3.89 (01:40) 0 0 0 0 0
01-08-2019 31.4 (18:10) 11.7 (00:00) 21.5 7.78 (16:40) 4.72 (19:00) 0 0 0 0 0
31-07-2019 29.7 (16:40) 9.5 (00:00) 19.6 8.33 (13:50) 5.83 (12:00) 0 0 0 0 0
30-07-2019 26 (18:30) 7.5 (00:00) 16.8 8.89 (17:20) 4.72 (17:00) 0 0 0 0 0
29-07-2019 26.4 (17:40) 11.5 (00:00) 18.9 11.39 (17:10) 6.94 (19:00) 0 0 0 0 0
28-07-2019 28.8 (19:10) 9.5 (00:00) 19.1 8.33 (00:50) 5.28 (01:30) 0 0 0 0 0
27-07-2019 25.6 (19:10) 12.8 (00:00) 19.2 10.83 (17:30) 6.94 (18:00) 0 0 0 0 0
26-07-2019 26 (16:50) 15.2 (00:00) 20.6 9.17 (16:30) 6.39 (17:00) 0 0 0 0 0
25-07-2019 33.1 (17:50) 14.2 (00:00) 23.6 15 (15:10) 10.28 (13:40) 0 0 0 0 0
24-07-2019 35.8 (18:00) 15.6 (00:00) 25.7 11.67 (16:00) 6.67 (17:20) 0 0 0 0 0

Gráficas

Temp. máximas Temp. mínimas Temp. medias Precipitaciones Rachas de viento máximas Velocidades máximas media en intervalos de 10 minutos

Datos horarios

Fecha y hora oficial Temperatura (ºC) Velocidad del viento (km/h) Dirección del viento Racha (km/h) Dirección de racha Precipitación (mm) Presión (hPa) Tendencia (hPa) Humedad (%)
2019-08-22 23:00:00 18.5 0 Calma 9 Nordeste 0 929.2 0.7 55
2019-08-22 22:00:00 20.5 9 Nordeste 13 Nordeste 0 928.9 0.2 39
2019-08-22 21:00:00 25.2 10 Nordeste 15 Este 0 928.7 -0.2 30
2019-08-22 20:00:00 28.8 9 Nordeste 15 Nordeste 0 928.5 -0.8 22
2019-08-22 19:00:00 30.1 11 Nordeste 22 Nordeste 0 928.7 -1 22
2019-08-22 18:00:00 30.4 12 Nordeste 22 Nordeste 0 928.9 -1.3 21
2019-08-22 17:00:00 30.2 9 Nordeste 26 Este 0 929.3 -1.3 22
2019-08-22 16:00:00 30.1 13 Este 30 Este 0 929.7 -1.4 23
2019-08-22 15:00:00 29.8 15 Este 30 Este 0 930.2 -1.1 27
2019-08-22 14:00:00 28.5 16 Este 30 Este 0 930.6 -0.7 35
2019-08-22 13:00:00 26.5 19 Este 26 Este 0 931.1 -0.1 46
2019-08-22 12:00:00 23.9 18 Este 24 Este 0 931.3 0.2 53
2019-08-22 11:00:00 20.9 12 Este 21 Este 0 931.3 0.8 62
2019-08-22 10:00:00 17.8 12 Este 18 Este 0 931.2 1 72
2019-08-22 09:00:00 14.5 4 Oeste 9 Oeste 0 931.1 1.1 84
2019-08-22 08:00:00 12 9 Sudoeste 11 Sudoeste 0 930.5 0.6 87
2019-08-22 07:00:00 12.8 0 Calma 13 Nordeste 0 930.2 0.5 86
2019-08-22 06:00:00 12.3 3 Sudeste 11 Norte 0 930 0.2 85
2019-08-22 05:00:00 12.6 5 Noroeste 9 Norte 0 929.9 0 84
2019-08-22 04:00:00 15 7 Este 11 Este 0 929.7 -0.3 71
2019-08-22 03:00:00 15.9 7 Este 11 Este 0 929.8 0.3 67
2019-08-22 02:00:00 16.6 7 Este 13 Este 0 929.9 0.7 66
2019-08-22 01:00:00 16.6 9 Este 18 Este 0 930 1.3 75
2019-08-22 00:00:00 17.8 4 Este 8 Este 0 929.5 1.5 70
2019-08-21 23:00:00 18.7 5 Este 8 Este 0 929.2 1.5 74
2019-08-21 22:00:00 21.3 3 Este 9 Sudeste 0 928.7 0.8 63
2019-08-21 21:00:00 25.7 3 Este 9 Este 0 928 0.1 46
2019-08-21 20:00:00 28.4 8 Este 17 Sudeste 0 927.7 -0.3 33
2019-08-21 19:00:00 28.9 14 Sudeste 35 Sudeste 0 927.9 -0.2 28
2019-08-21 18:00:00 30.1 14 Sudeste 24 Sudeste 0 927.9 -0.7 33
2019-08-21 17:00:00 29 8 Norte 26 Norte 0 928 -1 34
2019-08-21 16:00:00 29 9 Noroeste 21 Norte 0 928.1 -1.3 38
2019-08-21 15:00:00 27.2 8 Norte 17 Norte 0 928.6 -1.2 44
2019-08-21 14:00:00 25.1 6 Norte 15 Nordeste 0 929 -0.5 51
2019-08-21 13:00:00 21.9 7 Norte 17 Nordeste 0 929.4 -0.2 56
2019-08-21 12:00:00 19.9 9 Norte 15 Norte 0 929.8 0.4 62
2019-08-21 11:00:00 18.7 6 Nordeste 15 Este 0 929.5 0.3 63
2019-08-21 10:00:00 16.4 6 Norte 13 Nordeste 0 929.6 0.6 70
2019-08-21 09:00:00 14 7 Nordeste 15 Norte 0 929.4 0.5 79
2019-08-21 08:00:00 12.6 10 Norte 21 Nordeste 0 929.2 0.2 84
2019-08-21 07:00:00 12.9 12 Norte 17 Norte 0 929 0 82
2019-08-21 06:00:00 12.8 5 Oeste 15 Sudoeste 0 928.9 -0.5 85
2019-08-21 05:00:00 13.2 7 Sudoeste 11 Oeste 0 929 -0.8 82
2019-08-21 04:00:00 14.1 3 Este 13 Nordeste 0 929 -0.8 75
2019-08-21 03:00:00 14.6 10 Nordeste 17 Norte 0 929.4 -0.4 73
2019-08-21 02:00:00 14.4 7 Este 9 Este 0 929.8 0.4 71
2019-08-21 01:00:00 15.7 6 Nordeste 17 Este 0 929.8 1.1 67
2019-08-21 00:00:00 17.9 14 Este 33 Nordeste 0 929.8 1.5 57
2019-08-20 23:00:00 19.6 21 Nordeste 32 Nordeste 0 929.4 1.4 51
2019-08-20 22:00:00 20 14 Nordeste 22 Este 0 928.7 0.6 48
2019-08-20 21:00:00 23.2 12 Nordeste 24 Nordeste 0 928.3 0.1 39
2019-08-20 20:00:00 25.9 15 Nordeste 22 Nordeste 0 928 -0.6 32
2019-08-20 19:00:00 26.9 17 Nordeste 32 Este 0 928.1 -1 27
2019-08-20 18:00:00 27.1 18 Nordeste 32 Nordeste 0 928.2 -1.4 28
2019-08-20 17:00:00 27.6 17 Este 30 Este 0 928.6 -1.4 28
2019-08-20 16:00:00 26.7 17 Este 32 Este 0 929.1 -1.1 34
2019-08-20 15:00:00 25.7 19 Este 32 Este 0 929.6 -0.8 37
2019-08-20 14:00:00 23.8 19 Este 33 Este 0 930 -0.2 45
2019-08-20 13:00:00 22 20 Este 30 Este 0 930.2 0.6 52
2019-08-20 12:00:00 20 20 Este 30 Este 0 930.4 0.9 58
2019-08-20 11:00:00 17.4 19 Este 30 Este 0 930.2 1.5 68
2019-08-20 10:00:00 15.9 22 Nordeste 32 Nordeste 0 929.6 1.6 74
2019-08-20 09:00:00 14.6 19 Nordeste 28 Nordeste 0 929.5 1.8 80
2019-08-20 08:00:00 13 14 Nordeste 21 Nordeste 0 928.7 1.4 87
2019-08-20 07:00:00 12.4 11 Nordeste 17 Nordeste 0 928 0.8 86
2019-08-20 06:00:00 13.5 11 Nordeste 22 Nordeste 0 927.7 0.4 81
2019-08-20 05:00:00 14.4 12 Nordeste 26 Nordeste 0 927.3 -0.2 77
2019-08-20 04:00:00 15 17 Nordeste 28 Nordeste 0 927.2 0.5 74
2019-08-20 03:00:00 15.7 19 Nordeste 28 Norte 0 927.3 0.8 71
2019-08-20 02:00:00 17 13 Nordeste 32 Nordeste 0 927.5 1.1 68
2019-08-20 01:00:00 17.9 16 Nordeste 24 Este 0 926.7 0.6 66
2019-08-20 00:00:00 19 15 Nordeste 21 Este 0 926.5 1 62
2019-08-19 23:00:00 19.9 12 Nordeste 18 Nordeste 0 926.4 0.8 60
2019-08-19 22:00:00 20.3 10 Nordeste 21 Nordeste 0 926.1 0.4 60
2019-08-19 21:00:00 22.8 5 Sur 9 Sur 0 925.5 -0.4 47
2019-08-19 20:00:00 23.2 8 Sur 11 Sur 0 925.6 -0.3 48
2019-08-19 19:00:00 23.9 6 Sudeste 9 Sudeste 0 925.7 -0.6 47
2019-08-19 18:00:00 23.5 6 Este 11 Este 0 925.9 -0.7 49
2019-08-19 17:00:00 23.5 6 Este 11 Norte 0 925.9 -0.8 47
2019-08-19 16:00:00 23.9 6 Norte 15 Este 0 926.3 -0.5 48
2019-08-19 15:00:00 23.9 9 Este 18 Norte 0 926.6 0 47
2019-08-19 14:00:00 22.2 10 Norte 21 Este 0 926.7 0.1 52
2019-08-19 13:00:00 20.6 6 Norte 21 Nordeste 0 926.8 0.6 60
2019-08-19 12:00:00 20.3 13 Norte 22 Norte 0 926.6 0.1 62
2019-08-19 11:00:00 18.8 14 Nordeste 28 Este 0 926.6 0.4 67
2019-08-19 10:00:00 17.4 12 Este 17 Este 0 926.2 0.2 72
2019-08-19 09:00:00 15.7 9 Nordeste 15 Norte 0 926.5 0.5 81
2019-08-19 08:00:00 15 6 Nordeste 11 Nordeste 0 926.2 0.3 83
2019-08-19 07:00:00 15.4 7 Nordeste 11 Nordeste 0 926 -0.1 80
2019-08-19 06:00:00 15.6 5 Norte 11 Noroeste 0 926 -0.5 74
2019-08-19 05:00:00 15.7 4 Norte 9 Noroeste 0 925.9 -1 73
2019-08-19 04:00:00 16 8 Noroeste 11 Norte 0 926.1 -0.6 71
2019-08-19 03:00:00 17.9 8 Norte 22 Nordeste 0 926.5 0.2 62
2019-08-19 02:00:00 19 14 Norte 24 Norte 0 926.9 1.4 62
2019-08-19 01:00:00 20.3 8 Noroeste 15 Noroeste 0 926.7 2 61
2019-08-19 00:00:00 19.8 4 Oeste 17 Noroeste 0 926.3 2.1 68
2019-08-18 23:00:00 21.3 10 Noroeste 18 Noroeste 0 925.5 1.5 62
2019-08-18 22:00:00 22.5 8 Noroeste 22 Noroeste 0 924.7 0.6 58
2019-08-18 21:00:00 25.1 15 Noroeste 26 Noroeste 0 924.2 0.1 49
2019-08-18 20:00:00 27.4 18 Noroeste 32 Noroeste 0 924 -0.4 44
2019-08-18 19:00:00 28.6 18 Oeste 35 Oeste 0 924.1 -0.5 43
2019-08-18 18:00:00 27.7 16 Oeste 39 Noroeste 0 924.1 -0.6 44
2019-08-18 17:00:00 29.2 14 Oeste 35 Noroeste 0 924.4 -0.6 35
2019-08-18 16:00:00 28.4 16 Oeste 32 Oeste 0 924.6 -0.8 39
2019-08-18 15:00:00 27.2 15 Oeste 28 Oeste 0 924.7 -0.8 41
2019-08-18 14:00:00 25.4 13 Oeste 24 Oeste 0 925 -0.1 48
2019-08-18 13:00:00 23 14 Oeste 22 Noroeste 0 925.4 0.2 52
2019-08-18 12:00:00 20.5 12 Oeste 21 Oeste 0 925.5 0.7 64
2019-08-18 11:00:00 19.8 9 Oeste 17 Sudoeste 0 925.1 0.6 68
2019-08-18 10:00:00 18.2 10 Oeste 21 Noroeste 0 925.2 1 78
2019-08-18 09:00:00 16.6 10 Sudoeste 17 Sudoeste 0 924.8 0.8 83
2019-08-18 08:00:00 12.4 6 Sudoeste 11 Oeste 0 924.5 0.4 87
2019-08-18 07:00:00 12.1 2 Sur 5 Nordeste 0 924.2 -0.3 88
2019-08-18 06:00:00 14.1 4 Sudoeste 9 Sudoeste 0 924 -0.7 83
2019-08-18 05:00:00 -- 9 Sudoeste 13 Sudoeste 0 924.1 -0.5 --
2019-08-18 04:00:00 16.8 10 Sudoeste 11 Oeste 0 924.5 -0.1 70
2019-08-18 03:00:00 16.8 5 Sudoeste 8 Sudoeste 0 924.7 0.2 66
2019-08-18 02:00:00 17.3 5 Oeste 5 Oeste 0 924.6 0.4 64
2019-08-18 01:00:00 18.2 5 Sudoeste 13 Oeste 0 924.6 0.8 57
2019-08-18 00:00:00 17.7 9 Noroeste 24 Noroeste 0 924.5 1.1 73
2019-08-17 23:00:00 20.5 2 Este 5 Este 0 924.2 1 60
2019-08-17 22:00:00 23.9 4 Sur 11 Noroeste 0 923.8 0.4 45
2019-08-17 21:00:00 29 5 Noroeste 21 Noroeste 0 923.4 -0.3 31
2019-08-17 20:00:00 32 10 Noroeste 24 Oeste 0 923.2 -0.9 23
2019-08-17 19:00:00 33.4 16 Oeste 30 Oeste 0 923.4 -1.3 23
2019-08-17 18:00:00 33.8 17 Oeste 33 Oeste 0 923.7 -1.6 24
2019-08-17 17:00:00 34 17 Noroeste 30 Noroeste 0 924.1 -2 24
2019-08-17 16:00:00 33.1 17 Noroeste 32 Noroeste 0 924.7 -2.1 23
2019-08-17 15:00:00 31.8 12 Oeste 22 Oeste 0 925.3 -1.9 30
2019-08-17 14:00:00 29.6 7 Oeste 18 Noroeste 0 926.1 -1.2 35
2019-08-17 13:00:00 27.6 6 Noroeste 18 Noroeste 0 926.8 -0.6 39
2019-08-17 12:00:00 25.8 7 Noroeste 17 Norte 0 927.2 -0.1 47
2019-08-17 11:00:00 22.5 5 Oeste 13 Oeste 0 927.3 0.2 57
2019-08-17 10:00:00 19.6 4 Oeste 8 Oeste 0 927.4 0.4 60
2019-08-17 09:00:00 15 0 Calma 5 Norte 0 927.3 0.2 83
2019-08-17 08:00:00 12.1 2 Sur 8 Sudeste 0 927.1 -0.3 87
2019-08-17 07:00:00 12.2 0 Calma 5 Sudeste 0 927 -0.7 90
2019-08-17 06:00:00 13.2 -- -- -- -- 0 927.1 -0.8 86
2019-08-17 05:00:00 14 2 Oeste 9 Sur 0 927.4 -0.5 83
2019-08-17 04:00:00 15.3 4 Sudoeste 8 Sudoeste 0 927.7 0.1 76
2019-08-17 03:00:00 15.5 0 Calma 9 Oeste 0 927.9 0.7 76
2019-08-17 02:00:00 17.2 6 Oeste 13 Oeste 0 927.9 1 65
2019-08-17 01:00:00 17.7 5 Sudoeste 8 Oeste 0 927.6 1.2 64
2019-08-17 00:00:00 19.8 5 Sudoeste 13 Oeste 0 927.2 1.2 50
2019-08-16 23:00:00 20 5 Noroeste 11 Noroeste 0 926.9 1.2 57
2019-08-16 22:00:00 23.4 9 Noroeste 21 Noroeste 0 926.4 0.5 38
2019-08-16 21:00:00 28.6 14 Noroeste 22 Noroeste 0 926 -0.1 25
2019-08-16 20:00:00 31.6 11 Noroeste 24 Noroeste 0 925.7 -0.7 21
2019-08-16 19:00:00 32.7 15 Noroeste 26 Oeste 0 925.9 -0.9 22
2019-08-16 18:00:00 32.8 13 Oeste 28 Oeste 0 926.1 -1.1 26
2019-08-16 17:00:00 32.9 18 Noroeste 30 Oeste 0 926.4 -1.4 25
2019-08-16 16:00:00 32.3 14 Oeste 28 Oeste 0 926.8 -1.5 28
2019-08-16 15:00:00 31.4 14 Noroeste 24 Noroeste 0 927.2 -1.5 32
2019-08-16 14:00:00 29.3 9 Oeste 15 Oeste 0 927.8 -1 39
2019-08-16 13:00:00 27.3 7 Oeste 15 Noroeste 0 928.3 -0.6 44
2019-08-16 12:00:00 24.8 8 Noroeste 17 Noroeste 0 928.7 0.1 48
2019-08-16 11:00:00 22 8 Noroeste 13 Noroeste 0 928.8 0.2 55
2019-08-16 10:00:00 19.2 4 Norte 9 Norte 0 928.9 0.7 69
2019-08-16 09:00:00 17 5 Oeste 8 Oeste 0 928.6 0.4 74
2019-08-16 08:00:00 13 3 Norte 4 Norte 0 928.6 0.3 92
2019-08-16 07:00:00 13.4 0 Calma 5 Sudoeste 0 928.2 -0.1 88
2019-08-16 06:00:00 13.7 0 Calma 9 Sur 0 928.2 -0.2 89
2019-08-16 05:00:00 15.1 6 Sur 11 Noroeste 0 928.3 -0.5 82
2019-08-16 04:00:00 15.6 8 Noroeste 13 Oeste 0 928.3 -0.6 85
2019-08-16 03:00:00 16.4 11 Oeste 13 Oeste 0 928.4 -0.5 82
2019-08-16 02:00:00 19.2 3 Oeste 22 Este 0 928.8 0.2 65
2019-08-16 01:00:00 19.3 3 Noroeste 9 Norte 0 928.9 0.9 67
2019-08-16 00:00:00 20 6 Norte 18 Norte 0 928.9 1.3 64
2019-08-15 23:00:00 20.4 6 Noroeste 11 Nordeste 0 928.6 0.9 71
2019-08-15 22:00:00 21.9 8 Norte 11 Este 0 928 0.1 69
2019-08-15 21:00:00 29.2 9 Este 11 Este 0 927.6 -0.6 40
2019-08-15 20:00:00 31.4 9 Este 17 Este 0 927.7 -0.8 30
2019-08-15 19:00:00 32.1 6 Sudeste 13 Oeste 0 927.9 -1.3 27
2019-08-15 18:00:00 31.2 6 Norte 13 Este 0 928.2 -1.4 28
2019-08-15 17:00:00 31.2 8 Este 17 Este 0 928.5 -1.6 27
2019-08-15 16:00:00 30.7 8 Sudeste 24 Este 0 929.2 -1.4 30
2019-08-15 15:00:00 29 11 Norte 24 Nordeste 0 929.6 -1.1 33
2019-08-15 14:00:00 28 10 Nordeste 24 Nordeste 0 930.1 -0.8 34
2019-08-15 13:00:00 27.1 12 Este 22 Este 0 930.6 -0.2 38
2019-08-15 12:00:00 24.9 11 Este 18 Este 0 930.7 -0.2 49
2019-08-15 11:00:00 22.5 8 Este 15 Este 0 930.9 0.3 58
2019-08-15 10:00:00 20.2 9 Este 15 Este 0 930.8 0.6 67
2019-08-15 09:00:00 17.3 2 Nordeste 9 Sudeste 0 930.9 1 78
2019-08-15 08:00:00 13.8 4 Noroeste 17 Noroeste 0 930.6 0.7 90
2019-08-15 07:00:00 13.3 13 Noroeste 17 Noroeste 0 930.2 0.2 92
2019-08-15 06:00:00 14.5 3 Sudoeste 5 Oeste 0 929.9 -0.1 90
2019-08-15 05:00:00 14.4 2 Noroeste 9 Noroeste 0 929.9 -0.1 87
2019-08-15 04:00:00 15.7 5 Sudoeste 11 Sur 0 930 0.1 86
2019-08-15 03:00:00 17.6 5 Sudeste 11 Noroeste 0 930 0.4 79
2019-08-15 02:00:00 18.4 9 Oeste 11 Oeste 0 930 0.7 77
2019-08-15 01:00:00 19.2 4 Norte 11 Noroeste 0 929.9 1.2 71
2019-08-15 00:00:00 21.1 7 Noroeste 15 Norte 0 929.6 1.3 64
2019-08-14 23:00:00 21 10 Noroeste 17 Noroeste 0 929.3 1.2 65
2019-08-14 22:00:00 22.6 11 Oeste -- -- 0 928.7 0.5 59
2019-08-14 21:00:00 27.7 8 Noroeste 13 Noroeste 0 928.3 -0.1 44
2019-08-14 20:00:00 30.5 9 Noroeste 15 Oeste 0 928.1 -0.7 30
2019-08-14 19:00:00 31.2 10 Oeste 18 Oeste 0 928.2 -1.1 26
2019-08-14 18:00:00 31.6 8 Noroeste 18 Oeste 0 928.4 -1.3 25
2019-08-14 17:00:00 31.1 13 Oeste 22 Noroeste 0 928.8 -1.2 23
2019-08-14 16:00:00 30.5 10 Noroeste 21 Noroeste 0 929.3 -1.1 23
2019-08-14 15:00:00 29.1 8 Oeste 21 Noroeste 0 929.7 -1.1 25
2019-08-14 14:00:00 27.9 8 Noroeste 17 Noroeste 0 930 -0.8 25
2019-08-14 13:00:00 26.3 6 Oeste 13 Oeste 0 930.4 -0.3 30
2019-08-14 12:00:00 23.5 5 Oeste 9 Oeste 0 930.8 0.3 39
2019-08-14 11:00:00 19.7 4 Oeste 9 Noroeste 0 930.8 0.8 43
2019-08-14 10:00:00 16.2 5 Sudoeste 9 Sudoeste 0 930.7 0.9 53
2019-08-14 09:00:00 11.8 0 Calma 5 Sur 0 930.5 0.8 80
2019-08-14 08:00:00 8.8 5 Sur 8 Sur 0 930 0.3 90
2019-08-14 07:00:00 8.5 0 Calma 4 Sur 0 929.8 -0.3 91
2019-08-14 06:00:00 8.9 3 Norte 5 Norte 0 929.7 -0.4 94
2019-08-14 05:00:00 9.3 4 Nordeste 8 Sur 0 929.7 -0.5 88
2019-08-14 04:00:00 10.6 3 Sur -- -- 0 930.1 0.1 86
2019-08-14 03:00:00 10.8 3 Nordeste -- -- 0 930.1 0.2 89
2019-08-14 02:00:00 11.7 4 Nordeste 8 Este 0 930.2 0.5 88
2019-08-14 01:00:00 13.1 2 Sur 4 Sur 0 930 0.8 80
2019-08-14 00:00:00 14.9 4 Sur -- -- 0 929.9 1 71
2019-08-13 23:00:00 17.8 4 Sur 9 Nordeste 0 929.7 0.9 52
2019-08-13 22:00:00 18.5 4 Nordeste 8 Nordeste 0 929.2 0.4 66
2019-08-13 21:00:00 24.6 5 Sudeste 11 Sudeste 0 928.9 0 32
2019-08-13 20:00:00 26 6 Sudeste 13 Sudeste 0 928.8 -0.5 22
2019-08-13 19:00:00 27 5 Este 18 Sudeste 0 928.8 -0.9 21
2019-08-13 18:00:00 26.9 9 Este 17 Nordeste 0 928.9 -1.2 22
2019-08-13 17:00:00 26.1 8 Sudeste 18 Este 0 929.3 -1.1 24
2019-08-13 16:00:00 25 8 Nordeste 18 Nordeste 0 929.7 -1.1 26
2019-08-13 15:00:00 24.7 7 Sudeste 21 Este 0 930.1 -1.3 27
2019-08-13 14:00:00 23.2 9 Este 26 Este 0 930.4 -0.8 32
2019-08-13 13:00:00 22.3 14 Este 26 Este 0 930.8 -0.2 37
2019-08-13 12:00:00 19.8 11 Nordeste 21 Este 0 931.4 0.6 44
2019-08-13 11:00:00 17.2 12 Nordeste 18 Este 0 931.2 0.8 54
2019-08-13 10:00:00 14.9 15 Este 21 Este 0 931 0.8 60
2019-08-13 09:00:00 11.5 2 Norte 11 Este 0 930.8 0.6 78
2019-08-13 08:00:00 9 6 Este 15 Nordeste 0 930.4 0.2 85
2019-08-13 07:00:00 8.7 10 Norte 15 Norte 0 930.2 -0.2 86
2019-08-13 06:00:00 9.5 7 Este 17 Nordeste 0 930.2 -0.2 82
2019-08-13 05:00:00 11.2 13 Este 26 Este 0 930.2 -0.5 75
2019-08-13 04:00:00 11.6 12 Este 18 Este 0 930.4 -0.4 74
2019-08-13 03:00:00 12.8 13 Nordeste 18 Este 0 930.4 -0.1 68
2019-08-13 02:00:00 14 13 Este 21 Este 0 930.7 0.8 59
2019-08-13 01:00:00 14.9 10 Este 17 Nordeste 0 930.8 1.5 55
2019-08-13 00:00:00 14.5 12 Nordeste 17 Nordeste 0 930.5 1.6 53
2019-08-12 23:00:00 16 12 Nordeste 17 Nordeste 0 929.9 0.8 55
2019-08-12 22:00:00 17.8 6 Nordeste 11 Nordeste 0 929.3 0.2 49
2019-08-12 21:00:00 20.1 5 Este 11 Nordeste 0 928.9 -0.2 36
2019-08-12 20:00:00 22.1 12 Nordeste 22 Nordeste 0 929.1 -0.3 27
2019-08-12 19:00:00 23.5 16 Nordeste 26 Nordeste 0 929.1 -0.9 24
2019-08-12 18:00:00 23.6 16 Nordeste 26 Nordeste 0 929.1 -- 22
2019-08-12 17:00:00 23.5 17 Este 30 Nordeste 0 929.4 -- 24
2019-08-12 16:00:00 22.5 15 Nordeste -- -- -- 930 -- 27
2019-08-12 15:00:00 -- -- -- -- -- -- -- -- --
2019-08-12 14:00:00 -- -- -- -- -- -- -- -- --
2019-08-12 13:00:00 -- -- -- -- -- -- -- -- --
2019-08-12 12:00:00 17.7 15 Este 28 Este 0 931.5 0.7 48
2019-08-12 11:00:00 16.2 14 Nordeste 22 Este 0 931.4 0.9 53
2019-08-12 10:00:00 14.1 17 Nordeste 26 Nordeste 0 931.1 1.3 60
2019-08-12 09:00:00 11 13 Nordeste 18 Nordeste 0 930.8 1.1 76
2019-08-12 08:00:00 9.1 4 Nordeste 9 Sudeste 0 930.5 0.8 86
2019-08-12 07:00:00 7.3 3 Sur 5 Sur 0 929.8 -0.1 87
2019-08-12 06:00:00 7 5 Norte 8 Norte 0 929.7 -0.5 87
2019-08-12 05:00:00 7.8 7 Norte 11 Norte 0 929.7 -0.7 86
2019-08-12 04:00:00 8.6 2 Sudeste 9 Sudeste 0 929.9 -0.4 80
2019-08-12 03:00:00 10 5 Norte 13 Noroeste 0 930.2 0.4 79
2019-08-12 02:00:00 11 6 Noroeste 13 Norte 0 930.4 1.2 74
2019-08-12 01:00:00 12 6 Nordeste 17 Norte 0 930.3 1.8 69
2019-08-12 00:00:00 13.9 13 Noroeste 21 Norte 0 929.8 2 61
2019-08-11 23:00:00 14.8 8 Noroeste 18 Noroeste 0 929.2 1.8 53
2019-08-11 22:00:00 15.8 10 Noroeste 18 Noroeste 0 928.5 1.1 47
2019-08-11 21:00:00 19.7 12 Noroeste 28 Noroeste 0 927.8 0.5 36
2019-08-11 20:00:00 21.6 15 Noroeste 30 Oeste 0 927.4 -0.1 31
2019-08-11 19:00:00 22.6 18 Oeste 33 Noroeste 0 927.4 -0.3 29
2019-08-11 18:00:00 23.2 19 Oeste 33 Noroeste 0 927.3 -0.7 29
2019-08-11 17:00:00 22.8 17 Noroeste 33 Oeste 0 927.5 -0.8 32
2019-08-11 16:00:00 22.7 15 Oeste 33 Noroeste 0 927.7 -1 36
2019-08-11 15:00:00 21.1 16 Oeste 28 Oeste 0 928 -0.4 46
2019-08-11 14:00:00 20.8 16 Noroeste 26 Noroeste 0 928.3 0.1 48
2019-08-11 13:00:00 18.4 12 Noroeste 26 Noroeste 0 928.7 0.9 64
2019-08-11 12:00:00 17.5 17 Oeste 26 Oeste 0 928.4 0.9 72
2019-08-11 11:00:00 16.4 17 Noroeste 26 Noroeste 0 928.2 1.2 79
2019-08-11 10:00:00 15.3 17 Noroeste 28 Noroeste 0 927.8 1.4 87
2019-08-11 09:00:00 13.4 7 Oeste 15 Noroeste 0 927.5 1.2 95
2019-08-11 08:00:00 11.2 9 Noroeste 13 Oeste 0 927 -0.2 96
2019-08-11 07:00:00 11.2 8 Oeste 11 Noroeste 0 926.4 -1.2 95
2019-08-11 06:00:00 13.1 9 Sudeste 11 Este 0 926.3 -1.6 91
2019-08-11 05:00:00 14 7 Norte 32 Noroeste 0.3 927.2 -0.6 89
2019-08-11 04:00:00 15.4 6 Sur 21 Oeste 0.1 927.6 0.4 86
2019-08-11 03:00:00 16.7 7 Oeste 18 Noroeste 0 927.9 0.6 72
2019-08-11 02:00:00 17.2 10 Noroeste 17 Oeste 0 927.8 0.4 64
2019-08-11 01:00:00 17.6 5 Noroeste 13 Noroeste 0 927.2 -0.1 59
2019-08-11 00:00:00 18.2 4 Noroeste 11 Noroeste 0 927.3 0.3 58
2019-08-10 23:00:00 18.5 10 Noroeste 15 Noroeste 0 927.4 0.8 56
2019-08-10 22:00:00 20.5 10 Noroeste 24 Noroeste 0 927.3 0.6 45
2019-08-10 21:00:00 23.1 16 Noroeste 26 Noroeste 0 927 -0.2 37
2019-08-10 20:00:00 25.9 16 Noroeste 28 Noroeste 0 926.6 -1.1 34
2019-08-10 19:00:00 27.4 10 Noroeste 21 Oeste 0 926.7 -1.9 33
2019-08-10 18:00:00 26.9 9 Noroeste 17 Noroeste 0 927.2 -1.9 34
2019-08-10 17:00:00 25.6 4 Noroeste 18 Norte 0 927.7 -2.1 38
2019-08-10 16:00:00 24.4 8 Norte 18 Noroeste 0 928.6 -1.3 41
2019-08-10 15:00:00 23.2 10 Oeste 17 Noroeste 0 929.1 -1.1 48
2019-08-10 14:00:00 21.9 6 Noroeste 17 Norte 0 929.8 -0.6 56
2019-08-10 13:00:00 20.9 7 Nordeste 15 Nordeste 0 929.9 -0.6 58
2019-08-10 12:00:00 19.3 7 Norte 15 Nordeste 0 930.2 0.1 62
2019-08-10 11:00:00 18.3 3 Este 9 Norte 0 930.4 0.3 69
2019-08-10 10:00:00 15.6 2 Noroeste 5 Oeste 0 930.5 1.2 85
2019-08-10 09:00:00 12.6 0 Calma 5 Norte 0 930.1 0.7 96
2019-08-10 08:00:00 11.6 4 Norte 8 Noroeste 0 930.1 0.7 97
2019-08-10 07:00:00 11.3 3 Este 8 Sudeste 0 929.3 0 97
2019-08-10 06:00:00 10.7 3 Este 5 Este 0 929.4 0.2 97
2019-08-10 05:00:00 10.3 2 Sudoeste 5 Oeste 0 929.4 0.2 96
2019-08-10 04:00:00 11 0 Calma 5 Este 0 929.3 0.3 96
2019-08-10 03:00:00 11.7 3 Sudoeste 8 Sudeste 0 929.2 0.4 98
2019-08-10 02:00:00 12.2 5 Sudeste 8 Sudeste 0 929.2 0.8 95
2019-08-10 01:00:00 13.6 -- -- -- -- 0 929 1.2 97
2019-08-10 00:00:00 14.5 9 Oeste 13 Oeste 0 928.8 1.6 90
2019-08-09 23:00:00 15.8 6 Oeste 13 Sudoeste 0 928.4 1.5 91
2019-08-09 22:00:00 16.9 9 Sur 18 Sur 0 927.8 0.6 88
2019-08-09 21:00:00 18.5 13 Sur 24 Sur 0 927.2 -0.3 84
2019-08-09 20:00:00 18.9 20 Sur 30 Sur 0 926.9 -0.4 81
2019-08-09 19:00:00 17.8 18 Sur 35 Sudoeste 1 927.2 0.7 87
2019-08-09 18:00:00 17.2 22 Sudoeste 37 Oeste 0.6 927.5 1.1 89
2019-08-09 17:00:00 18.8 27 Sudoeste 52 Oeste 0.6 927.3 0.7 83
2019-08-09 16:00:00 22 17 Oeste 39 Sudoeste 0 926.5 -0.1 72
2019-08-09 15:00:00 22.5 17 Oeste 33 Oeste 0 926.4 -0.1 75
2019-08-09 14:00:00 20.3 18 Oeste 35 Oeste 0.3 926.6 1.3 86
2019-08-09 13:00:00 19 18 Oeste 30 Oeste 0 926.6 1.9 89
2019-08-09 12:00:00 17.9 22 Oeste 33 Noroeste 0 926.5 2.1 91
2019-08-09 11:00:00 20.3 16 Oeste 39 Oeste 0 925.3 1.3 86
2019-08-09 10:00:00 22.7 30 Sudoeste 42 Sudoeste 0 924.7 1.1 71
2019-08-09 09:00:00 21.5 29 Sudoeste 41 Sudoeste 0 924.4 0.9 76
2019-08-09 08:00:00 19.7 16 Sudoeste 39 Sudoeste 0 924 0.1 83
2019-08-09 07:00:00 19.5 26 Sudoeste 35 Sudoeste 0 923.6 -0.4 83
2019-08-09 06:00:00 19 16 Sudoeste 26 Sudoeste 0 923.5 -0.5 83
2019-08-09 05:00:00 19.4 14 Sur 26 Sudoeste 0 923.9 -0.3 79
2019-08-09 04:00:00 18.4 8 Sur 13 Sudeste 0 924 -0.3 81
2019-08-09 03:00:00 19.2 9 Sur 18 Sudoeste 0 924 -0.5 75
2019-08-09 02:00:00 18.1 2 Sudoeste 5 Sur 0 924.2 0 82
2019-08-09 01:00:00 19.5 0 Calma 13 Sudoeste 0 924.3 0.7 76
2019-08-09 00:00:00 20.5 9 Oeste 21 Oeste 0 924.5 1.4 71
2019-08-08 23:00:00 22.7 14 Oeste 24 Oeste 0 924.2 1.3 60
2019-08-08 22:00:00 25.1 17 Oeste 39 Sudoeste 0 923.6 0.6 53
2019-08-08 21:00:00 27.4 25 Sudoeste 42 Sudoeste 0 923.1 0 46
2019-08-08 20:00:00 28.8 34 Sudoeste 55 Sudoeste 0 922.9 -0.1 39
2019-08-08 19:00:00 29.7 31 Sudoeste 54 Sudoeste 0 923 -0.5 37
2019-08-08 18:00:00 30.6 35 Sudoeste 52 Sudoeste 0 923.1 -0.8 37
2019-08-08 17:00:00 31.1 32 Sudoeste 48 Sudoeste 0 923 -1.2 35
2019-08-08 16:00:00 31.2 28 Sudoeste 58 Sudoeste 0 923.5 -1.1 34
2019-08-08 15:00:00 30.6 27 Sudoeste 45 Sudoeste 0 923.9 -0.7 37
2019-08-08 14:00:00 29.8 27 Sudoeste 45 Sudoeste 0 924.2 -0.4 41
2019-08-08 13:00:00 28.5 25 Sudoeste 35 Sudoeste 0 924.6 -0.1 45
2019-08-08 12:00:00 27 26 Sudoeste 35 Sudoeste 0 924.6 -0.1 48
2019-08-08 11:00:00 25.9 21 Oeste 35 Sudoeste 0 924.6 0 49
2019-08-08 10:00:00 24 26 Sudoeste 37 Sudoeste 0 924.7 0.1 54
2019-08-08 09:00:00 21.6 20 Sudoeste 30 Sudoeste 0 924.7 0.2 62
2019-08-08 08:00:00 19.3 11 Sudoeste 18 Sudoeste 0 924.6 -0.1 70
2019-08-08 07:00:00 18.8 12 Sudoeste 17 Sudoeste 0 924.6 -0.5 71
2019-08-08 06:00:00 19.7 3 Sudoeste 8 Sudoeste 0 924.5 -0.7 69
2019-08-08 05:00:00 19.9 7 Sudoeste 15 Sur 0 924.7 -0.7 65
2019-08-08 04:00:00 19.7 8 Oeste 28 Oeste 0 925.1 0 69
2019-08-08 03:00:00 20.7 13 Sudoeste 21 Oeste 0 925.2 0.2 60
2019-08-08 02:00:00 20.7 13 Sudoeste 21 Sudoeste 0 925.4 0.4 63
2019-08-08 01:00:00 20.3 14 Sudoeste 24 Sudoeste 0 925.1 0.7 66
2019-08-08 00:00:00 20.3 17 Sudoeste 26 Sudoeste 0 925 1 63
2019-08-07 23:00:00 21 14 Sudoeste 26 Sudoeste 0 925 1.1 59
2019-08-07 22:00:00 21.8 15 Sudoeste 22 Sudoeste 0 924.4 0.2 55
2019-08-07 21:00:00 24.3 14 Sudoeste 26 Sudoeste 0 924 -0.4 48
2019-08-07 20:00:00 25.9 14 Sudoeste 26 Sudoeste 0 923.9 -0.5 44
2019-08-07 19:00:00 25.2 13 Sudoeste 26 Sudoeste 0 924.2 -0.2 48
2019-08-07 18:00:00 24.7 20 Sudoeste 32 Sudoeste 0 924.4 0.2 50
2019-08-07 17:00:00 25.6 21 Sudoeste 30 Sudoeste 0 924.4 -0.1 42
2019-08-07 16:00:00 25.8 20 Sudoeste 33 Sur 0 924.4 -0.2 45
2019-08-07 15:00:00 26.1 13 Oeste 26 Sudoeste 0 924.2 -0.4 42
2019-08-07 14:00:00 26.6 11 Oeste 17 Oeste 0 924.5 0.3 40
2019-08-07 13:00:00 24.8 6 Oeste 11 Oeste 0 924.6 0.5 52
2019-08-07 12:00:00 23.4 5 Noroeste 13 Oeste 0 924.6 0.9 60
2019-08-07 11:00:00 22.4 6 Noroeste 13 Sudoeste 0 924.2 0.7 64
2019-08-07 10:00:00 20.9 8 Oeste 13 Oeste 0 924.1 1.1 70
2019-08-07 09:00:00 18.6 6 Oeste 11 Oeste 0 923.7 1.3 80
2019-08-07 08:00:00 17.1 8 Oeste 13 Oeste 0 923.5 1 86
2019-08-07 07:00:00 16.4 8 Oeste 15 Noroeste 0 923 0.4 88
2019-08-07 06:00:00 16.9 12 Oeste 15 Oeste 0 922.4 -0.5 85
2019-08-07 05:00:00 18.2 5 Norte 9 Este 0 922.5 -0.9 85
2019-08-07 04:00:00 19.4 9 Oeste -- -- 0 922.6 -1 76
2019-08-07 03:00:00 20 4 Oeste 13 Noroeste 0 922.9 -0.4 73
2019-08-07 02:00:00 20.7 0 Calma 9 Norte 0 923.4 -0.2 73
2019-08-07 01:00:00 20.9 10 Noroeste 15 Oeste 0 923.6 0.9 71
2019-08-07 00:00:00 21.7 5 Noroeste 11 Oeste 0 923.3 1.1 68
2019-08-06 23:00:00 22.7 10 Oeste 18 Noroeste 0 923.6 2 59
2019-08-06 22:00:00 24.7 13 Noroeste 22 Norte 0 922.7 1.2 45
2019-08-06 21:00:00 26.1 11 Noroeste 26 Noroeste 0 922.2 0.5 40
2019-08-06 20:00:00 28.2 14 Noroeste 22 Oeste 0 921.6 -0.3 36
2019-08-06 19:00:00 29.9 12 Noroeste 24 Noroeste 0 921.5 -0.9 31
2019-08-06 18:00:00 30.5 12 Oeste 22 Oeste 0 921.7 -1.4 36
2019-08-06 17:00:00 32.4 16 Noroeste 26 Norte 0 921.9 -1.8 28
2019-08-06 16:00:00 32.1 15 Noroeste 24 Noroeste 0 922.4 -2.1 26
2019-08-06 15:00:00 31.2 12 Noroeste 22 Noroeste 0 923.1 -1.6 32
2019-08-06 14:00:00 29 9 Norte 18 Norte 0 923.7 -0.9 41
2019-08-06 13:00:00 27.6 6 Noroeste 13 Norte 0 924.5 -0.2 45
2019-08-06 12:00:00 25.3 4 Norte 11 Norte 0 924.7 -0.2 55
2019-08-06 11:00:00 23.2 4 Norte 9 Norte 0 924.6 -0.1 62
2019-08-06 10:00:00 20.7 4 Norte 9 Sur 0 924.7 -0.2 67
2019-08-06 09:00:00 18.2 8 Sur 13 Sur 0 924.9 -0.2 69
2019-08-06 08:00:00 14.5 5 Sur 9 Oeste 0 924.7 -0.4 85
2019-08-06 07:00:00 14.4 5 Oeste 8 Oeste 0 924.9 -0.3 81
2019-08-06 06:00:00 13.8 2 Noroeste 17 Oeste 0 925.1 0.1 85
2019-08-06 05:00:00 15.7 3 Sudoeste 9 Sur 0 925.1 -0.3 74
2019-08-06 04:00:00 15.9 6 Sudoeste 9 Sudoeste 0 925.2 0.2 74
2019-08-06 03:00:00 17.3 8 Oeste 11 Oeste 0 925 0.2 68
2019-08-06 02:00:00 17.4 0 Calma 5 Oeste 0 925.4 0.9 73
2019-08-06 01:00:00 17.3 3 Norte 15 Oeste 0 925 1.1 70
2019-08-06 00:00:00 20 8 Oeste -- -- 0 924.8 1.4 57
2019-08-05 23:00:00 20.4 4 Oeste 13 Oeste 0 924.5 1.4 61
2019-08-05 22:00:00 23.5 6 Noroeste 17 Noroeste 0 923.9 0.8 48
2019-08-05 21:00:00 27.6 13 Noroeste 22 Noroeste 0 923.4 0.1 37
2019-08-05 20:00:00 30.6 14 Noroeste 26 Noroeste 0 923.1 -0.5 27
2019-08-05 19:00:00 31.9 14 Oeste 26 Oeste 0 923.1 -0.9 27
2019-08-05 18:00:00 32.7 19 Noroeste 28 Noroeste 0 923.3 -1.1 20
2019-08-05 17:00:00 32.8 16 Noroeste 30 Noroeste 0 923.6 -1.3 19
2019-08-05 16:00:00 32.1 19 Noroeste 32 Noroeste 0 924 -1.6 23
2019-08-05 15:00:00 31.2 17 Noroeste 28 Noroeste 0 924.4 -1.5 27
2019-08-05 14:00:00 28.7 9 Norte 15 Norte 0 924.9 -1.2 32
2019-08-05 13:00:00 26.3 5 Noroeste 13 Norte 0 925.6 -0.8 49
2019-08-05 12:00:00 24.4 4 Noroeste 13 Noroeste 0 925.9 -0.5 54
2019-08-05 11:00:00 21.6 5 Noroeste 11 Norte 0 926.1 -0.3 66
2019-08-05 10:00:00 19.2 5 Oeste 11 Oeste 0 926.4 0.3 77
2019-08-05 09:00:00 16.4 3 Oeste 9 Oeste 0 926.4 0.2 87
2019-08-05 08:00:00 13.9 0 Calma 4 Sur 0 926.4 0.1 91
2019-08-05 07:00:00 12.9 0 Calma 5 Este 0 926.1 -0.4 91
2019-08-05 06:00:00 13.5 5 Este 5 Este 0 926.2 -0.3 90
2019-08-05 05:00:00 14.7 3 Sur 5 Sudoeste 0 926.3 -0.2 81
2019-08-05 04:00:00 15.7 5 Sudoeste 8 Sudoeste 0 926.5 0.1 81
2019-08-05 03:00:00 16.4 3 Sur 5 Sur 0 926.5 0.4 78
2019-08-05 02:00:00 17.5 0 Calma 13 Oeste 0 926.5 0.9 73
2019-08-05 01:00:00 17.7 9 Oeste 11 Oeste 0 926.4 1.5 74
2019-08-05 00:00:00 19.5 5 Sudoeste -- -- 0 926.1 1.8 69
2019-08-04 23:00:00 21.1 5 Este -- -- 0 925.6 1.8 60
2019-08-04 22:00:00 24.4 8 Noroeste 15 Noroeste 0 924.9 1.3 47
2019-08-04 21:00:00 29.3 12 Noroeste 28 Noroeste 0 924.3 0.6 29
2019-08-04 20:00:00 31.1 13 Noroeste 26 Oeste 0 923.8 0 31
2019-08-04 19:00:00 32.8 10 Oeste 28 Noroeste 0 923.6 -0.7 28
2019-08-04 18:00:00 32.1 13 Oeste 32 Noroeste 0 923.7 -1.1 30
2019-08-04 17:00:00 32.7 21 Oeste 32 Noroeste 0 923.8 -1.5 29
2019-08-04 16:00:00 32.2 18 Noroeste 37 Noroeste 0 924.3 -1.4 27
2019-08-04 15:00:00 31.2 16 Noroeste 24 Noroeste 0 924.8 -1.1 33
2019-08-04 14:00:00 28.7 8 Noroeste 17 Noroeste 0 925.3 -0.8 42
2019-08-04 13:00:00 26.9 6 Oeste 13 Oeste 0 925.7 -0.4 47
2019-08-04 12:00:00 25 8 Oeste 15 Oeste 0 925.9 0 55
2019-08-04 11:00:00 22.8 10 Oeste 15 Noroeste 0 926.1 0.5 63
2019-08-04 10:00:00 20.3 10 Oeste 15 Oeste 0 926.1 0.5 71
2019-08-04 09:00:00 17.2 2 Oeste 5 Noroeste 0 925.9 0.4 77
2019-08-04 08:00:00 13.4 4 Oeste -- -- 0 925.6 0 90
2019-08-04 07:00:00 14.5 0 Calma 13 Sudoeste 0 925.6 -0.1 81
2019-08-04 06:00:00 16.1 9 Sudoeste -- -- 0 925.5 -0.2 76
2019-08-04 05:00:00 16.2 9 Sudoeste 11 Sudoeste 0 925.6 0.2 73
2019-08-04 04:00:00 16.1 2 Oeste 8 Oeste 0 925.7 0.7 80
2019-08-04 03:00:00 17.1 0 Calma 18 Oeste 0 925.7 0.9 71
2019-08-04 02:00:00 19.4 15 Oeste 22 Oeste 0 925.4 1.1 61
2019-08-04 01:00:00 19.1 18 Oeste 22 Oeste 0 925 1.5 63
2019-08-04 00:00:00 21.2 16 Oeste 28 Oeste 0 924.8 1.7 54
2019-08-03 23:00:00 21.6 10 Oeste 21 Oeste 0 924.3 1.3 56
2019-08-03 22:00:00 23.8 2 Noroeste 15 Noroeste 0 923.5 0.4 47
2019-08-03 21:00:00 29.6 13 Noroeste 21 Noroeste 0 923.1 -0.1 28
2019-08-03 20:00:00 31.5 10 Noroeste 18 Oeste 0 923 -0.7 31
2019-08-03 19:00:00 32.8 10 Oeste 24 Noroeste 0 923.1 -0.9 27
2019-08-03 18:00:00 33.1 15 Oeste 28 Noroeste 0 923.2 -1.1 27
2019-08-03 17:00:00 33.2 15 Oeste 28 Oeste 0 923.7 -0.9 24
2019-08-03 16:00:00 32.9 17 Noroeste 32 Noroeste 0 924 -1.1 21
2019-08-03 15:00:00 31.9 17 Oeste 30 Noroeste 0 924.3 -1 27
2019-08-03 14:00:00 30.9 10 Noroeste 22 Noroeste 0 924.6 -0.7 30
2019-08-03 13:00:00 28.3 5 Norte 18 Noroeste 0 925.1 -0.3 39
2019-08-03 12:00:00 25.7 7 Noroeste 13 Noroeste 0 925.3 0 46
2019-08-03 11:00:00 23 6 Oeste 11 Oeste 0 925.3 0.3 57
2019-08-03 10:00:00 19.5 5 Oeste 9 Oeste 0 925.4 0.6 70
2019-08-03 09:00:00 15.8 3 Nordeste 9 Norte 0 925.3 0.6 77
2019-08-03 08:00:00 12.7 6 Sur 9 Sur 0 925 0.2 85
2019-08-03 07:00:00 12.8 3 Sudeste -- -- 0 924.8 -0.1 87
2019-08-03 06:00:00 13 4 Sudeste 5 Sur 0 924.7 -0.2 85
2019-08-03 05:00:00 13.4 0 Calma 5 Oeste 0 924.8 -0.5 87
2019-08-03 04:00:00 14.8 0 Calma 5 Oeste 0 924.9 -0.5 81
2019-08-03 03:00:00 15.3 0 Calma 9 Este 0 924.9 -0.3 76
2019-08-03 02:00:00 16.3 5 Sur 11 Sudoeste 0 925.3 0.2 71
2019-08-03 01:00:00 17.5 3 Oeste 13 Sudoeste 0 925.4 0.9 68
2019-08-03 00:00:00 20.4 4 Sur 5 Sur 0 925.2 0.8 56
2019-08-02 23:00:00 21.5 6 Este 15 Nordeste 0 925.1 0.8 55
2019-08-02 22:00:00 23.5 8 Nordeste 11 Norte 0 924.5 0 55
2019-08-02 21:00:00 29.5 7 Noroeste 15 Norte 0 924.4 -0.3 34
2019-08-02 20:00:00 32 6 Norte 17 Norte 0 924.3 -0.9 24
2019-08-02 19:00:00 32.2 9 Oeste 21 Norte 0 924.5 -1.1 24
2019-08-02 18:00:00 32.1 6 Norte 15 Nordeste 0 924.7 -1.3 24
2019-08-02 17:00:00 32.3 9 Oeste 17 Noroeste 0 925.2 -1.1 21
2019-08-02 16:00:00 31.1 7 Norte 15 Este 0 925.6 -1 23
2019-08-02 15:00:00 29.6 8 Norte 18 Norte 0 926 -0.7 31
2019-08-02 14:00:00 28.4 9 Este 18 Este 0 926.3 -0.5 42
2019-08-02 13:00:00 26.2 10 Norte 17 Norte 0 926.6 -0.1 50
2019-08-02 12:00:00 24.2 7 Este 15 Nordeste 0 926.7 0.2 57
2019-08-02 11:00:00 20.9 5 Norte 15 Este 0 926.8 0.7 69
2019-08-02 10:00:00 18.7 10 Nordeste 13 Este 0 926.7 0.8 76
2019-08-02 09:00:00 15.4 3 Sudeste 5 Sur 0 926.5 0.6 81
2019-08-02 08:00:00 11 0 Calma 4 Norte 0 926.1 0.1 92
2019-08-02 07:00:00 11 0 Calma 5 Nordeste 0 925.9 -0.1 90
2019-08-02 06:00:00 11.2 3 Este 5 Nordeste 0 925.9 0.2 90
2019-08-02 05:00:00 12.5 5 Este 9 Este 0 926 0 80
2019-08-02 04:00:00 13 2 Este 5 Este 0 926 0.2 78
2019-08-02 03:00:00 14.2 2 Norte 11 Noroeste 0 925.7 0.4 75
2019-08-02 02:00:00 14.4 5 Norte 17 Oeste 0 926 1.3 73
2019-08-02 01:00:00 16.3 10 Oeste 15 Oeste 0 925.8 1.9 63
2019-08-02 00:00:00 18 2 Sur 8 Sur 0 925.3 1.9 62
2019-08-01 23:00:00 20 0 Calma 11 Norte 0 924.7 1.7 56
2019-08-01 22:00:00 22.8 9 Norte 17 Noroeste 0 923.9 1.1 38
2019-08-01 21:00:00 27 9 Noroeste 24 Norte 0 923.4 0.5 32
2019-08-01 20:00:00 29.6 11 Noroeste 22 Noroeste 0 923 0 26
2019-08-01 19:00:00 30.3 17 Noroeste 26 Oeste 0 922.8 -0.6 25
2019-08-01 18:00:00 31.1 11 Oeste 28 Oeste 0 922.9 -1 23
2019-08-01 17:00:00 30.9 9 Noroeste 28 Noroeste 0 923 -1.3 26
2019-08-01 16:00:00 29.5 13 Norte 26 Oeste 0 923.4 -1.1 28
2019-08-01 15:00:00 28.7 8 Oeste 17 Norte 0 923.9 -0.6 29
2019-08-01 14:00:00 27 7 Norte 17 Oeste 0 924.3 -0.1 37
2019-08-01 13:00:00 25.1 8 Noroeste 18 Oeste 0 924.5 0.4 43
2019-08-01 12:00:00 23.4 8 Oeste 15 Noroeste 0 924.5 0.7 50
2019-08-01 11:00:00 20.6 8 Noroeste 13 Oeste 0 924.4 0.9 61
2019-08-01 10:00:00 17.8 8 Oeste 11 Oeste 0 924.1 1 71
2019-08-01 09:00:00 15.1 6 Noroeste 9 Noroeste 0 923.8 1 83
2019-08-01 08:00:00 12.3 4 Noroeste 13 Oeste 0 923.5 0.8 89
2019-08-01 07:00:00 12.5 12 Oeste 13 Oeste 0 923.1 0.4 88
2019-08-01 06:00:00 12.3 6 Noroeste 11 Norte 0 922.8 -0.1 86
2019-08-01 05:00:00 12.3 9 Noroeste 11 Oeste 0 922.7 -0.7 86
2019-08-01 04:00:00 14.2 7 Norte 15 Noroeste 0 922.7 -0.8 80
2019-08-01 03:00:00 15.1 5 Noroeste 11 Nordeste 0 922.9 -0.8 80
2019-08-01 02:00:00 15.9 11 Noroeste 15 Noroeste 0 923.4 -0.3 74
2019-08-01 01:00:00 19.1 9 Este 17 Este 0 923.5 0.3 54
2019-08-01 00:00:00 20.4 10 Nordeste 21 Norte 0 923.7 1 47
2019-07-31 23:00:00 21.6 5 Noroeste 13 Norte 0 923.7 1.2 46
2019-07-31 22:00:00 22.7 5 Noroeste 21 Norte 0 923.2 0.7 41
2019-07-31 21:00:00 25 6 Nordeste 15 Norte 0 922.7 -0.3 41
2019-07-31 20:00:00 26.9 9 Norte 21 Norte 0 922.5 -1 35
2019-07-31 19:00:00 29 9 Nordeste 15 Norte 0 922.5 -1.7 32
2019-07-31 18:00:00 29.1 4 Norte 18 Norte 0 923 -1.6 30
2019-07-31 17:00:00 29.5 10 Norte 17 Norte 0 923.5 -1.8 31
2019-07-31 16:00:00 28.3 6 Nordeste 30 Nordeste 0 924.2 -1.6 33
2019-07-31 15:00:00 26.9 12 Nordeste 22 Norte 0 924.6 -1.5 36
2019-07-31 14:00:00 25.4 16 Nordeste 30 Norte 0 925.3 -0.9 40
2019-07-31 13:00:00 23.2 14 Nordeste 28 Nordeste 0 925.8 -0.5 43
2019-07-31 12:00:00 20.3 21 Nordeste 28 Nordeste 0 926.1 -0.2 50
2019-07-31 11:00:00 19.2 14 Nordeste 26 Este 0 926.2 -0.4 52
2019-07-31 10:00:00 16.9 13 Este 22 Nordeste 0 926.3 -0.3 60
2019-07-31 09:00:00 13.1 12 Nordeste 17 Norte 0 926.3 -0.6 75
2019-07-31 08:00:00 9.8 3 Este 11 Nordeste 0 926.6 -0.2 87
2019-07-31 07:00:00 9.6 5 Nordeste 9 Nordeste 0 926.6 -0.2 86
2019-07-31 06:00:00 10.2 4 Norte 9 Noroeste 0 926.9 -0.3 82
2019-07-31 05:00:00 10.9 2 Nordeste 18 Este 0 926.8 -0.5 78
2019-07-31 04:00:00 12.7 11 Este 17 Este 0 926.8 -0.1 69
2019-07-31 03:00:00 13.1 10 Nordeste 17 Este 0 927.2 0.2 64
2019-07-31 02:00:00 14.7 13 Este 24 Este 0 927.3 0.3 58
2019-07-31 01:00:00 14.9 12 Este 21 Nordeste 0 926.9 0.5 57
2019-07-31 00:00:00 13 2 Oeste 8 Noroeste 0 927 0.8 70
2019-07-30 23:00:00 16.5 5 Nordeste 13 Nordeste 0 927 0.9 52
2019-07-30 22:00:00 19 10 Nordeste 15 Nordeste 0 926.4 0.2 43
2019-07-30 21:00:00 23.3 10 Nordeste 17 Nordeste 0 926.2 -0.4 28
2019-07-30 20:00:00 24.4 12 Nordeste 21 Nordeste 0 926.1 -1 27
2019-07-30 19:00:00 25.4 13 Nordeste 24 Nordeste 0 926.2 -1.4 22
2019-07-30 18:00:00 25.3 15 Nordeste 32 Nordeste 0 926.6 -1.4 22
2019-07-30 17:00:00 25.4 17 Este 30 Nordeste 0 927.1 -1.5 23
2019-07-30 16:00:00 24.2 12 Este 24 Este 0 927.6 -1.3 28
2019-07-30 15:00:00 22.9 12 Nordeste 28 Este 0 928 -1 30
2019-07-30 14:00:00 21.3 10 Norte 24 Este 0 928.6 -0.5 33
2019-07-30 13:00:00 19.6 9 Nordeste 24 Norte 0 928.9 -0.4 39
2019-07-30 12:00:00 18.4 10 Nordeste 21 Nordeste 0 929 -0.1 44
2019-07-30 11:00:00 16.6 13 Nordeste 22 Este 0 929.1 0.6 48
2019-07-30 10:00:00 14.5 10 Nordeste 18 Nordeste 0 929.3 0.9 61
2019-07-30 09:00:00 11.8 0 Calma 5 Este 0 929.1 0.8 77
2019-07-30 08:00:00 8.2 6 Sur -- -- 0 928.5 0.2 90
2019-07-30 07:00:00 8.5 0 Calma 13 Noroeste 0 928.4 0.4 84
2019-07-30 06:00:00 8.3 3 Norte 8 Norte 0 928.3 0.4 85
2019-07-30 05:00:00 8.3 5 Noroeste 11 Noroeste 0 928.3 0.7 89
2019-07-30 04:00:00 9.3 7 Noroeste 11 Oeste 0 928 0.8 84
2019-07-30 03:00:00 -- 9 Oeste 11 Oeste 0 927.9 1.4 --
2019-07-30 02:00:00 11.7 8 Noroeste 13 Noroeste 0 927.6 1.5 73
2019-07-30 01:00:00 13.3 5 Noroeste 17 Noroeste 0 927.2 2.1 65
2019-07-30 00:00:00 14.9 11 Noroeste 18 Noroeste 0 926.5 2.1 57
2019-07-29 23:00:00 16.9 12 Noroeste 21 Noroeste 0 926.1 2.3 50
2019-07-29 22:00:00 18.3 14 Noroeste 28 Noroeste 0 925.1 1.3 44
2019-07-29 21:00:00 21.8 19 Noroeste 33 Noroeste 0 924.4 0.8 33
2019-07-29 20:00:00 23.9 20 Noroeste 35 Noroeste 0 923.8 0.2 29
2019-07-29 19:00:00 24.8 25 Noroeste 39 Oeste 0 923.8 0.1 28
2019-07-29 18:00:00 25.6 25 Noroeste 41 Noroeste 0 923.6 -0.1 28
2019-07-29 17:00:00 25.7 23 Oeste 37 Noroeste 0 923.6 -0.1 30
2019-07-29 16:00:00 25.5 20 Oeste 39 Noroeste 0 923.7 -0.3 32
2019-07-29 15:00:00 24.6 20 Oeste 33 Noroeste 0 923.7 -0.3 37
2019-07-29 14:00:00 23.6 15 Oeste 35 Oeste 0 923.7 -0.3 48
2019-07-29 13:00:00 22.1 16 Oeste 33 Oeste 0 924 0.1 54
2019-07-29 12:00:00 20.9 19 Oeste 30 Noroeste 0 924 0.5 61
2019-07-29 11:00:00 19.6 10 Oeste 22 Oeste 0 924 0.8 54
2019-07-29 10:00:00 17.6 10 Oeste 21 Oeste 0 923.9 1.2 57
2019-07-29 09:00:00 14.8 4 Oeste 11 Sudoeste 0 923.5 0.9 70
2019-07-29 08:00:00 12.4 4 Sudoeste 8 Sudoeste 0 923.2 0.6 75
2019-07-29 07:00:00 11.7 5 Sudoeste 11 Sudoeste 0 922.7 0.4 78
2019-07-29 06:00:00 12.2 10 Sudoeste 15 Sudoeste 0 922.6 0.4 80
2019-07-29 05:00:00 -- 11 Sudoeste 13 Sudoeste 0 922.6 0.3 --
2019-07-29 04:00:00 14.7 9 Oeste 17 Oeste 0 922.3 0.4 78
2019-07-29 03:00:00 13.2 6 Oeste 13 Oeste 0 922.2 0.5 72
2019-07-29 02:00:00 14.3 0 Calma 13 Sudoeste 0 922.3 0.7 69
2019-07-29 01:00:00 15.3 7 Sudoeste -- -- 0 921.9 0.9 69
2019-07-29 00:00:00 16.1 4 Sudeste 8 Este 0 921.7 1.1 65
2019-07-28 23:00:00 18.4 0 Calma 13 Noroeste 0 921.6 1.2 45
2019-07-28 22:00:00 20.8 12 Noroeste 22 Noroeste 0 921 0.7 38
2019-07-28 21:00:00 25.7 12 Noroeste 18 Noroeste 0 920.6 0 36
2019-07-28 20:00:00 28.2 13 Oeste 26 Noroeste 0 920.4 -0.8 26
2019-07-28 19:00:00 28.1 8 Norte 18 Norte 0 920.3 -1.5 27
2019-07-28 18:00:00 27.6 9 Norte 21 Norte 0 920.6 -1.7 26
2019-07-28 17:00:00 27.3 6 Norte 30 Norte 0 921.2 -1.6 28
2019-07-28 16:00:00 25.8 11 Norte 21 Norte 0 921.8 -1.4 31
2019-07-28 15:00:00 24.5 12 Nordeste 21 Norte 0 922.3 -1.1 37
2019-07-28 14:00:00 23.3 10 Norte 17 Nordeste 0 922.8 -0.7 40
2019-07-28 13:00:00 22.8 8 Este 22 Nordeste 0 923.2 -0.4 42
2019-07-28 12:00:00 21.1 13 Este 24 Este 0 923.4 -0.1 47
2019-07-28 11:00:00 19.2 17 Este 24 Este 0 923.5 0.1 54
2019-07-28 10:00:00 16.8 15 Este 22 Este 0 923.6 0.4 66
2019-07-28 09:00:00 13.8 13 Este 21 Este 0 923.5 0.1 79
2019-07-28 08:00:00 10.9 12 Nordeste 17 Nordeste 0 923.4 -0.3 89
2019-07-28 07:00:00 9.9 9 Este 13 Este 0 923.2 -0.4 89
2019-07-28 06:00:00 10.6 8 Este 11 Este 0 923.4 -0.2 87
2019-07-28 05:00:00 11.4 8 Nordeste 13 Este 0 923.7 0.2 84
2019-07-28 04:00:00 12.4 10 Este 17 Nordeste 0 923.6 0.3 82
2019-07-28 03:00:00 13.3 10 Este 22 Este 0 923.6 0.9 78
2019-07-28 02:00:00 14.8 15 Este 30 Este 0 923.5 1.4 74
2019-07-28 01:00:00 16.3 18 Este 30 Este 0 923.3 1.9 72
2019-07-28 00:00:00 17.5 20 Nordeste 33 Este 0 922.7 2 68
2019-07-27 23:00:00 17.8 9 Nordeste 15 Nordeste 0 922.1 2 69
2019-07-26 12:00:00 19.8 14 Oeste 22 Oeste 0 925.1 0.4 46
2019-07-26 11:00:00 17.7 10 Oeste 26 Noroeste 0 925.1 0.8 58
2019-07-26 10:00:00 16.1 18 Oeste 28 Oeste 0 925.1 0.8 66
2019-07-26 09:00:00 15.5 16 Oeste 24 Noroeste 0 924.7 0.3 71
2019-07-26 08:00:00 15.9 15 Noroeste 28 Noroeste 0 924.3 -0.2 77
2019-07-26 07:00:00 16.7 16 Noroeste 28 Noroeste 0 924.3 -0.5 76
2019-07-26 06:00:00 17.4 13 Noroeste 21 Noroeste 0 924.4 -0.7 80
2019-07-26 05:00:00 17.7 12 Noroeste 18 Noroeste 0 924.5 -0.6 79
2019-07-26 04:00:00 18.7 9 Noroeste 22 Noroeste 0 924.8 -0.2 78
2019-07-26 03:00:00 19.6 13 Noroeste 24 Noroeste 0 925.1 0.6 75
2019-07-26 02:00:00 19.5 12 Oeste 28 Noroeste 0 925.1 1.2 80
2019-07-26 01:00:00 20.4 17 Noroeste 30 Noroeste 0 925 1.1 75
2019-07-26 00:00:00 21.4 18 Noroeste 33 Noroeste 0 924.5 1 70
2019-07-25 23:00:00 22 8 Noroeste 26 Noroeste 0 923.9 1 62
2019-07-25 22:00:00 23.9 15 Noroeste 33 Noroeste 0 923.9 1.1 53
2019-07-25 21:00:00 28 18 Sudoeste 37 Sudoeste 0 923.5 0.4 28
2019-07-25 20:00:00 29.4 24 Sudoeste 46 Sudoeste 0 922.9 -0.8 25
2019-07-25 19:00:00 31.4 27 Sudoeste 45 Sudoeste 0 922.8 -1.1 23
2019-07-25 18:00:00 32.7 20 Sudoeste 42 Sur 0 923.1 -1.1 24
2019-07-25 17:00:00 31.9 27 Sudoeste 46 Oeste 0 923.7 -0.7 24
2019-07-25 16:00:00 32.2 32 Oeste 54 Oeste 0 923.9 -0.5 21
2019-07-25 15:00:00 31.5 34 Oeste 52 Sudoeste 0 924.2 -0.1 22
2019-07-25 14:00:00 30.6 37 Oeste 52 Oeste 0 924.4 0.2 24
2019-07-25 13:00:00 31.3 31 Sudoeste 45 Sudoeste 0 924.4 -0.1 26
2019-07-25 12:00:00 29.9 25 Oeste 42 Sudoeste 0 924.3 -0.1 31
2019-07-25 11:00:00 28.7 13 Sudoeste 24 Sur 0 924.2 -0.1 35
2019-07-25 10:00:00 24.9 13 Sur 18 Sur 0 924.5 0.2 42
2019-07-25 09:00:00 19.7 4 Sur 11 Este 0 924.4 -0.1 57
2019-07-25 08:00:00 14.6 2 Este 9 Este 0 924.3 -0.2 80
2019-07-25 07:00:00 14.9 5 Este 9 Este 0 924.3 -0.4 77
2019-07-25 06:00:00 15.6 8 Este 9 Este 0 924.5 -0.2 77
2019-07-25 05:00:00 16.8 5 Este 11 Sudoeste 0 924.5 -0.1 70
2019-07-25 04:00:00 19.4 8 Sur 13 Sur 0 924.7 0.1 45
2019-07-25 03:00:00 19.2 7 Sudoeste 21 Oeste 0 924.7 0.3 53
2019-07-25 02:00:00 20.4 16 Oeste 21 Oeste 0 924.6 0.8 53
2019-07-25 01:00:00 20.1 13 Oeste 22 Oeste 0 924.6 1.1 62
2019-07-25 00:00:00 21.2 10 Oeste 13 Noroeste 0 924.4 1.1 69
2019-07-24 23:00:00 23.7 0 Calma 13 Oeste 0 923.8 0.6 60
2019-07-24 22:00:00 27.3 12 Oeste 22 Sudoeste 0 923.5 0.3 40
2019-07-24 21:00:00 31.6 14 Sudoeste 24 Oeste 0 923.3 -0.3 30
2019-07-24 20:00:00 33.8 23 Sudoeste 33 Sudoeste 0 923.2 -0.8 24
2019-07-24 19:00:00 35 22 Sudoeste 33 Sur 0 923.2 -1.1 21
2019-07-24 18:00:00 35.5 23 Sur 33 Sur 0 923.6 -1.1 21
2019-07-24 17:00:00 35 17 Sudoeste 35 Sudoeste 0 924 -1.2 23
2019-07-24 16:00:00 34.5 19 Sudoeste 42 Sur 0 924.3 -1.2 25
2019-07-24 15:00:00 34.6 15 Sudoeste 28 Sur 0 924.7 -1 26
2019-07-24 14:00:00 33.5 9 Sudoeste 35 Sudoeste 0 925.2 -0.8 27
2019-07-24 13:00:00 32.6 10 Oeste 26 Sudoeste 0 925.5 -0.5 34
2019-07-24 12:00:00 31 10 Este 13 Este 0 925.7 -0.5 37
2019-07-24 11:00:00 27.9 8 Sur 17 Sur 0 926 0.2 42
2019-07-24 10:00:00 23.8 8 Este 13 Este 0 926 0.4 58
2019-07-24 09:00:00 19.9 8 Este 13 Este 0 926.2 0.5 76
2019-07-24 08:00:00 16.7 4 Este 13 Este 0 925.8 -0.1 87
2019-07-24 07:00:00 16.1 3 Este 11 Este 0 925.6 -0.7 90
2019-07-24 06:00:00 16.7 6 Este 8 Sudeste 0 925.7 -0.9 87
2019-07-24 05:00:00 17.6 4 Este 8 Este 0 925.9 -1.1 83
2019-07-24 04:00:00 19.4 9 Sur 13 Sur 0 926.3 -0.7 75
2019-07-24 03:00:00 18.5 7 Sur 13 Sudeste 0 926.6 -0.4 79
2019-07-24 02:00:00 20.5 9 Sur 11 Sudoeste 0 927 0.6 68
2019-07-24 01:00:00 22.2 3 Este 18 Sudeste 0 927 1.7 66
2019-07-24 00:00:00 22.6 6 Norte 28 Este 0 927 2.1 65